createdAt,value
2023-05-10T00:02:09.026Z,1.38
2023-05-10T00:05:11.685Z,1.05
2023-05-10T00:08:14.762Z,1.17
2023-05-10T00:11:17.185Z,1.02
2023-05-10T00:14:20.606Z,1.70
2023-05-10T00:17:23.257Z,1.08
2023-05-10T00:20:26.086Z,1.10
2023-05-10T00:23:28.847Z,0.90
2023-05-10T00:26:31.440Z,0.73
2023-05-10T00:29:34.868Z,0.88
2023-05-10T00:32:38.464Z,1.52
2023-05-10T00:35:41.390Z,1.08
2023-05-10T00:38:45.596Z,0.52
2023-05-10T00:41:48.190Z,0.70
2023-05-10T00:44:52.529Z,1.33
2023-05-10T00:47:57.118Z,1.10
2023-05-10T00:50:59.977Z,1.05
2023-05-10T00:54:03.433Z,1.00
2023-05-10T00:57:06.138Z,1.05
2023-05-10T01:00:09.668Z,1.42
2023-05-10T01:03:12.693Z,1.27
2023-05-10T01:06:15.496Z,1.10
2023-05-10T01:09:19.486Z,1.30
2023-05-10T01:12:22.374Z,1.33
2023-05-10T01:15:25.436Z,1.50
2023-05-10T01:18:29.062Z,1.05
2023-05-10T01:21:46.387Z,1.10
2023-05-10T01:25:06.949Z,0.90
2023-05-10T01:28:36.815Z,1.08
2023-05-10T01:31:58.252Z,1.05
2023-05-10T01:35:07.580Z,0.90
2023-05-10T01:38:15.788Z,1.27
2023-05-10T01:41:34.218Z,0.80
2023-05-10T01:44:56.977Z,0.80
2023-05-10T01:48:11.937Z,0.70
2023-05-10T01:51:20.991Z,1.08
2023-05-10T01:54:25.818Z,0.85
2023-05-10T01:57:34.056Z,1.37
2023-05-10T02:00:41.068Z,1.52
2023-05-10T02:03:44.746Z,1.13
2023-05-10T02:06:49.187Z,0.80
2023-05-10T02:09:52.454Z,0.85
2023-05-10T02:12:56.836Z,1.00
2023-05-10T02:16:00.871Z,0.98
2023-05-10T02:19:05.360Z,0.90
2023-05-10T02:22:09.969Z,0.80
2023-05-10T02:25:15.079Z,1.48
2023-05-10T02:28:19.178Z,0.87
2023-05-10T02:31:23.177Z,1.10
2023-05-10T02:34:28.424Z,0.73
2023-05-10T02:37:32.496Z,1.95
2023-05-10T02:40:37.860Z,0.93
2023-05-10T02:43:41.907Z,1.13
2023-05-10T02:46:45.102Z,1.30
2023-05-10T02:49:48.598Z,0.70
2023-05-10T02:52:53.344Z,0.93
2023-05-10T02:56:00.283Z,1.08
2023-05-10T02:59:02.952Z,1.73
2023-05-10T03:02:06.396Z,1.55
2023-05-10T03:05:09.208Z,0.90
2023-05-10T03:08:12.177Z,0.95
2023-05-10T03:11:53.125Z,1.05
2023-05-10T03:15:11.086Z,1.30
2023-05-10T03:18:22.823Z,0.73
2023-05-10T03:21:29.884Z,1.13
2023-05-10T03:24:35.380Z,0.77
2023-05-10T03:27:41.520Z,1.38
2023-05-10T03:30:45.950Z,0.80
2023-05-10T03:33:50.824Z,1.02
2023-05-10T03:36:58.975Z,0.80
2023-05-10T03:40:05.553Z,0.82
2023-05-10T03:43:10.472Z,0.93
2023-05-10T03:46:13.483Z,1.48
2023-05-10T03:49:15.908Z,0.85
2023-05-10T03:52:19.547Z,1.43
2023-05-10T03:55:23.489Z,1.27
2023-05-10T03:58:26.802Z,0.63
2023-05-10T04:01:29.492Z,1.00
2023-05-10T04:04:32.215Z,1.23
2023-05-10T04:07:35.092Z,0.95
2023-05-10T04:10:38.199Z,1.30
2023-05-10T04:13:40.574Z,1.15
2023-05-10T04:16:43.516Z,1.17
2023-05-10T04:19:46.092Z,1.02
2023-05-10T04:22:49.135Z,1.07
2023-05-10T04:25:51.890Z,1.20
2023-05-10T04:28:54.533Z,1.20
2023-05-10T04:31:57.644Z,1.20
2023-05-10T04:35:00.397Z,1.00
2023-05-10T04:38:02.990Z,1.25
2023-05-10T04:41:10.321Z,1.30
2023-05-10T04:44:12.774Z,1.08
2023-05-10T04:47:15.677Z,1.55
2023-05-10T04:50:18.745Z,1.30
2023-05-10T04:53:21.999Z,0.97
2023-05-10T04:56:24.519Z,0.95
2023-05-10T04:59:27.636Z,1.10
2023-05-10T05:02:30.236Z,0.90
2023-05-10T05:05:32.995Z,1.27
2023-05-10T05:08:35.632Z,1.55
2023-05-10T05:11:38.419Z,0.90
2023-05-10T05:14:42.233Z,1.58
2023-05-10T05:17:45.299Z,1.40
2023-05-10T05:20:47.782Z,1.15
2023-05-10T05:23:50.715Z,1.57
2023-05-10T05:26:53.092Z,1.00
2023-05-10T05:29:56.360Z,1.33
2023-05-10T05:32:59.134Z,1.40
2023-05-10T05:36:03.083Z,0.98
2023-05-10T05:39:05.888Z,1.38
2023-05-10T05:42:09.098Z,1.55
2023-05-10T05:45:14.192Z,1.27
2023-05-10T05:48:17.117Z,1.20
2023-05-10T05:51:19.592Z,1.30
2023-05-10T05:54:22.681Z,1.63
2023-05-10T05:57:25.375Z,2.10
2023-05-10T06:00:28.125Z,1.40
2023-05-10T06:03:30.818Z,1.60
2023-05-10T06:06:33.571Z,1.45
2023-05-10T06:09:36.057Z,1.67
2023-05-10T06:12:38.909Z,1.52
2023-05-10T06:15:41.361Z,1.20
2023-05-10T06:18:43.982Z,1.67
2023-05-10T06:21:46.398Z,1.42
2023-05-10T06:24:49.215Z,1.10
2023-05-10T06:27:53.737Z,1.30
2023-05-10T06:30:56.797Z,1.40
2023-05-10T06:33:59.195Z,1.73
2023-05-10T06:37:01.784Z,1.17
2023-05-10T06:40:05.022Z,1.42
2023-05-10T06:43:08.286Z,1.88
2023-05-10T06:46:11.031Z,1.33
2023-05-10T06:49:13.759Z,1.33
2023-05-10T06:52:16.676Z,1.65
2023-05-10T06:55:39.130Z,2.13
2023-05-10T06:58:42.018Z,1.83
2023-05-10T07:01:44.752Z,2.53
2023-05-10T07:04:48.438Z,1.60
2023-05-10T07:07:51.376Z,1.98
2023-05-10T07:10:54.080Z,1.40
2023-05-10T07:13:57.066Z,1.45
2023-05-10T07:16:59.612Z,2.08
2023-05-10T07:20:02.637Z,1.40
2023-05-10T07:23:05.220Z,1.30
2023-05-10T07:26:08.131Z,1.70
2023-05-10T07:29:11.137Z,1.50
2023-05-10T07:32:13.770Z,1.52
2023-05-10T07:35:16.633Z,1.67
2023-05-10T07:38:19.346Z,1.60
2023-05-10T07:41:22.482Z,1.75
2023-05-10T07:44:25.428Z,1.35
2023-05-10T07:47:28.098Z,1.65
2023-05-10T07:50:30.702Z,1.40
2023-05-10T07:53:33.317Z,1.13
2023-05-10T07:56:36.063Z,1.50
2023-05-10T07:59:38.761Z,1.52
2023-05-10T08:02:41.931Z,1.70
2023-05-10T08:05:44.609Z,1.50
2023-05-10T08:08:50.456Z,1.40
2023-05-10T08:11:53.077Z,0.98
2023-05-10T08:14:55.675Z,1.90
2023-05-10T08:17:58.288Z,1.35
2023-05-10T08:21:00.787Z,1.20
2023-05-10T08:24:03.706Z,1.58
2023-05-10T08:27:06.652Z,1.63
2023-05-10T08:30:09.871Z,1.67
2023-05-10T08:33:12.600Z,1.38
2023-05-10T08:36:21.041Z,1.70
2023-05-10T08:39:30.340Z,1.50
2023-05-10T08:42:38.965Z,1.48
2023-05-10T08:45:44.000Z,1.83
2023-05-10T08:48:47.523Z,2.00
2023-05-10T08:51:56.138Z,1.00
2023-05-10T08:54:59.218Z,1.55
2023-05-10T08:58:01.919Z,1.63
2023-05-10T09:01:05.976Z,1.33
2023-05-10T09:04:08.745Z,1.00
2023-05-10T09:07:11.879Z,1.27
2023-05-10T09:10:15.854Z,1.25
2023-05-10T09:13:18.601Z,1.48
2023-05-10T09:16:22.478Z,1.05
2023-05-10T09:19:25.136Z,1.02
2023-05-10T09:22:28.235Z,1.13
2023-05-10T09:25:30.811Z,0.90
2023-05-10T09:28:52.542Z,0.87
2023-05-10T09:31:57.502Z,0.60
2023-05-10T09:35:07.812Z,0.93
2023-05-10T09:38:11.432Z,0.60
2023-05-10T09:41:22.567Z,0.57
2023-05-10T09:44:27.104Z,0.57
2023-05-10T09:47:30.083Z,0.70
2023-05-10T09:50:32.722Z,0.93
2023-05-10T09:53:35.658Z,0.63
2023-05-10T09:56:41.387Z,1.17
2023-05-10T09:59:44.636Z,0.70
2023-05-10T10:02:58.149Z,0.65
2023-05-10T10:06:01.494Z,0.47
2023-05-10T10:09:04.109Z,0.60
2023-05-10T10:12:06.887Z,1.20
2023-05-10T10:15:10.538Z,2.10
2023-05-10T10:18:18.199Z,1.20
2023-05-10T10:21:21.490Z,0.65
2023-05-10T10:24:24.088Z,0.65
2023-05-10T10:27:38.836Z,0.70
2023-05-10T10:30:49.180Z,0.60
2023-05-10T10:34:06.430Z,0.70
2023-05-10T10:37:09.473Z,0.95
2023-05-10T10:40:26.757Z,0.70
2023-05-10T10:43:30.000Z,0.88
2023-05-10T10:46:35.320Z,0.88
2023-05-10T10:49:41.181Z,0.75
2023-05-10T10:52:45.248Z,1.02
2023-05-10T10:55:49.198Z,1.20
2023-05-10T10:58:52.888Z,1.08
2023-05-10T11:01:55.619Z,0.87
2023-05-10T11:04:58.253Z,1.30
2023-05-10T11:08:01.940Z,1.00
2023-05-10T11:11:09.614Z,0.93
2023-05-10T11:14:12.438Z,0.75
2023-05-10T11:17:26.174Z,1.20
2023-05-10T11:20:34.306Z,0.82
2023-05-10T11:23:57.343Z,1.27
2023-05-10T11:26:59.766Z,1.17
2023-05-10T11:30:04.832Z,0.98
2023-05-10T11:33:10.874Z,1.00
2023-05-10T11:36:19.167Z,0.90
2023-05-10T11:39:22.787Z,0.95
2023-05-10T11:42:25.811Z,0.93
2023-05-10T11:45:30.106Z,0.73
2023-05-10T11:48:32.934Z,1.10
2023-05-10T11:51:37.330Z,1.23
2023-05-10T11:54:52.835Z,1.10
2023-05-10T11:57:56.031Z,0.93
2023-05-10T12:01:00.332Z,1.30
2023-05-10T12:04:03.345Z,0.80
2023-05-10T12:07:06.308Z,0.98
2023-05-10T12:10:15.616Z,0.85
2023-05-10T12:13:20.634Z,1.00
2023-05-10T12:16:29.840Z,0.90
2023-05-10T12:19:39.740Z,0.82
2023-05-10T12:22:44.937Z,1.08
2023-05-10T12:25:48.203Z,0.90
2023-05-10T12:28:50.916Z,0.80
2023-05-10T12:31:58.157Z,1.20
2023-05-10T12:35:00.890Z,0.70
2023-05-10T12:38:31.954Z,1.10
2023-05-10T12:41:34.558Z,1.23
2023-05-10T12:44:37.075Z,0.70
2023-05-10T12:47:41.407Z,0.55
2023-05-10T12:50:45.726Z,0.95
2023-05-10T12:53:49.704Z,0.90
2023-05-10T12:56:52.342Z,0.90
2023-05-10T12:59:55.717Z,1.13
2023-05-10T13:02:58.369Z,1.08
2023-05-10T13:06:01.292Z,1.00
2023-05-10T13:09:04.735Z,1.10
2023-05-10T13:12:09.913Z,0.63
2023-05-10T13:15:12.760Z,1.10
2023-05-10T13:18:15.418Z,1.20
2023-05-10T13:21:18.103Z,1.42
2023-05-10T13:24:20.596Z,1.10
2023-05-10T13:27:23.322Z,0.68
2023-05-10T13:30:26.217Z,0.70
2023-05-10T13:33:29.001Z,0.75
2023-05-10T13:36:32.548Z,1.13
2023-05-10T13:39:35.670Z,0.90
2023-05-10T13:42:38.552Z,0.68
2023-05-10T13:45:41.079Z,0.83
2023-05-10T13:48:43.752Z,1.17
2023-05-10T13:51:46.273Z,1.00
2023-05-10T13:54:49.078Z,0.90
2023-05-10T13:57:51.617Z,0.70
2023-05-10T14:00:54.265Z,0.73
2023-05-10T14:03:57.016Z,0.80
2023-05-10T14:06:59.726Z,0.77
2023-05-10T14:10:02.436Z,0.90
2023-05-10T14:13:04.923Z,1.10
2023-05-10T14:16:07.745Z,0.70
2023-05-10T14:19:10.584Z,1.10
2023-05-10T14:22:13.180Z,2.85
2023-05-10T14:25:16.088Z,3.45
2023-05-10T14:28:19.779Z,2.83
2023-05-10T14:31:22.738Z,1.65
2023-05-10T14:34:25.351Z,1.08
2023-05-10T14:37:27.993Z,2.33
2023-05-10T14:40:31.345Z,1.40
2023-05-10T14:43:34.173Z,1.50
2023-05-10T14:46:37.299Z,0.90
2023-05-10T14:49:40.163Z,0.60
2023-05-10T14:52:42.684Z,2.90
2023-05-10T14:55:45.484Z,2.38
2023-05-10T14:58:48.025Z,2.03
2023-05-10T15:01:51.031Z,0.73
2023-05-10T15:04:58.599Z,1.23
2023-05-10T15:08:01.630Z,1.40
2023-05-10T15:11:04.556Z,1.75
2023-05-10T15:14:07.260Z,1.27
2023-05-10T15:17:10.050Z,1.30
2023-05-10T15:20:12.810Z,0.70
2023-05-10T15:23:15.398Z,1.40
2023-05-10T15:26:18.065Z,1.00
2023-05-10T15:29:21.238Z,1.85
2023-05-10T15:32:23.733Z,2.75
2023-05-10T15:35:27.406Z,3.45
2023-05-10T15:38:29.854Z,3.97
2023-05-10T15:41:32.648Z,3.22
2023-05-10T15:44:36.156Z,0.65
2023-05-10T15:47:40.717Z,1.27
2023-05-10T15:50:43.739Z,0.70
2023-05-10T15:54:00.405Z,0.88
2023-05-10T15:57:08.730Z,0.40
2023-05-10T16:00:13.226Z,1.30
2023-05-10T16:03:16.417Z,0.77
2023-05-10T16:06:19.133Z,1.08
2023-05-10T16:09:22.040Z,1.10
2023-05-10T16:12:24.855Z,1.30
2023-05-10T16:15:27.653Z,0.77
2023-05-10T16:18:30.537Z,0.70
2023-05-10T16:21:33.514Z,0.90
2023-05-10T16:24:37.112Z,0.88
2023-05-10T16:27:39.737Z,1.20
2023-05-10T16:30:42.345Z,0.82
2023-05-10T16:33:45.115Z,0.90
2023-05-10T16:36:47.766Z,0.80
2023-05-10T16:39:50.286Z,0.90
2023-05-10T16:42:52.923Z,1.00
2023-05-10T16:45:55.499Z,0.90
2023-05-10T16:48:59.994Z,1.27
2023-05-10T16:52:03.304Z,1.60
2023-05-10T16:55:06.774Z,1.20
2023-05-10T16:58:09.925Z,1.10
2023-05-10T17:01:12.900Z,0.98
2023-05-10T17:04:16.515Z,1.17
2023-05-10T17:07:19.665Z,1.50
2023-05-10T17:10:22.041Z,1.07
2023-05-10T17:13:25.146Z,1.42
2023-05-10T17:16:28.004Z,1.83
2023-05-10T17:19:30.836Z,1.93
2023-05-10T17:22:33.664Z,2.40
2023-05-10T17:25:36.875Z,2.63
2023-05-10T17:28:39.339Z,2.17
2023-05-10T17:31:42.214Z,1.88
2023-05-10T17:34:44.736Z,1.55
2023-05-10T17:37:47.407Z,1.42
2023-05-10T17:40:51.087Z,1.13
2023-05-10T17:43:54.394Z,1.27
2023-05-10T17:46:57.028Z,0.60
2023-05-10T17:49:59.828Z,1.40
2023-05-10T17:53:02.979Z,0.63
2023-05-10T17:56:05.968Z,0.93
2023-05-10T17:59:08.954Z,0.50
2023-05-10T18:02:11.588Z,0.50
2023-05-10T18:05:14.397Z,0.47
2023-05-10T18:08:22.616Z,0.40
2023-05-10T18:11:25.057Z,0.40
2023-05-10T18:14:40.095Z,0.80
2023-05-10T18:17:43.927Z,0.80
2023-05-10T18:20:46.789Z,0.70
2023-05-10T18:23:49.697Z,0.68
2023-05-10T18:26:52.657Z,0.60
2023-05-10T18:29:55.276Z,0.65
2023-05-10T18:32:58.612Z,1.08
2023-05-10T18:36:02.424Z,0.80
2023-05-10T18:39:05.632Z,0.70
2023-05-10T18:42:09.151Z,0.50
2023-05-10T18:45:12.913Z,0.60
2023-05-10T18:48:15.559Z,0.63
2023-05-10T18:51:18.533Z,0.50
2023-05-10T18:54:21.132Z,0.77
2023-05-10T18:57:24.242Z,0.40
2023-05-10T19:00:27.277Z,1.00
2023-05-10T19:03:30.336Z,0.93
2023-05-10T19:06:33.837Z,1.15
2023-05-10T19:09:36.897Z,0.80
2023-05-10T19:12:41.345Z,0.60
2023-05-10T19:15:44.505Z,1.15
2023-05-10T19:18:47.410Z,0.82
2023-05-10T19:21:50.459Z,0.70
2023-05-10T19:24:53.571Z,0.82
2023-05-10T19:27:57.971Z,0.95
2023-05-10T19:31:01.837Z,0.77
2023-05-10T19:34:04.846Z,0.77
2023-05-10T19:37:07.719Z,0.70
2023-05-10T19:40:10.553Z,0.85
2023-05-10T19:43:13.443Z,1.00
2023-05-10T19:46:17.933Z,1.00
2023-05-10T19:49:23.308Z,0.77
2023-05-10T19:52:26.121Z,0.60
2023-05-10T19:55:30.020Z,0.50
2023-05-10T19:58:33.750Z,0.90
2023-05-10T20:01:36.641Z,0.75
2023-05-10T20:04:39.679Z,0.50
2023-05-10T20:07:42.223Z,0.80
2023-05-10T20:10:45.278Z,1.25
2023-05-10T20:13:47.665Z,0.47
2023-05-10T20:16:50.618Z,0.82
2023-05-10T20:19:53.141Z,0.70
2023-05-10T20:22:55.789Z,0.83
2023-05-10T20:25:58.586Z,0.90
2023-05-10T20:29:01.277Z,0.73
2023-05-10T20:32:04.052Z,0.57
2023-05-10T20:35:07.519Z,0.88
2023-05-10T20:38:10.373Z,0.70
2023-05-10T20:41:13.075Z,0.60
2023-05-10T20:44:15.712Z,0.53
2023-05-10T20:47:18.619Z,0.95
2023-05-10T20:50:21.173Z,0.70
2023-05-10T20:53:23.886Z,0.83
2023-05-10T20:56:26.841Z,0.82
2023-05-10T20:59:29.660Z,0.90
2023-05-10T21:02:33.932Z,1.02
2023-05-10T21:05:36.891Z,0.68
2023-05-10T21:08:39.532Z,0.68
2023-05-10T21:11:42.208Z,0.50
2023-05-10T21:14:46.860Z,0.83
2023-05-10T21:17:49.840Z,0.85
2023-05-10T21:20:52.520Z,0.55
2023-05-10T21:23:55.100Z,1.17
2023-05-10T21:26:57.840Z,0.55
2023-05-10T21:30:00.550Z,0.60
2023-05-10T21:33:03.707Z,0.65
2023-05-10T21:36:06.683Z,0.60
2023-05-10T21:39:09.123Z,0.40
2023-05-10T21:42:11.935Z,0.95
2023-05-10T21:45:14.344Z,0.70
2023-05-10T21:48:16.956Z,0.77
2023-05-10T21:51:19.674Z,0.63
2023-05-10T21:54:22.338Z,1.80
2023-05-10T21:57:25.114Z,3.35
2023-05-10T22:00:27.915Z,2.03
2023-05-10T22:03:31.036Z,1.52
2023-05-10T22:06:33.709Z,3.65
2023-05-10T22:09:36.660Z,2.42
2023-05-10T22:12:39.336Z,5.65
2023-05-10T22:15:41.947Z,4.57
2023-05-10T22:18:44.719Z,3.00
2023-05-10T22:21:47.462Z,1.85
2023-05-10T22:24:50.158Z,1.83
2023-05-10T22:27:52.978Z,1.75
2023-05-10T22:30:55.720Z,1.77
2023-05-10T22:33:58.419Z,1.65
2023-05-10T22:37:02.854Z,1.83
2023-05-10T22:40:05.973Z,2.85
2023-05-10T22:43:08.802Z,1.92
2023-05-10T22:46:11.215Z,3.30
2023-05-10T22:49:14.332Z,2.15
2023-05-10T22:52:16.878Z,2.15
2023-05-10T22:55:19.631Z,1.63
2023-05-10T22:58:22.066Z,2.35
2023-05-10T23:01:24.710Z,1.58
2023-05-10T23:04:27.834Z,2.28
2023-05-10T23:07:30.456Z,2.22
2023-05-10T23:10:33.045Z,1.50
2023-05-10T23:13:36.098Z,1.67
2023-05-10T23:16:39.173Z,1.40
2023-05-10T23:19:42.344Z,1.70
2023-05-10T23:22:45.004Z,1.70
2023-05-10T23:25:47.730Z,1.80
2023-05-10T23:28:50.104Z,1.75
2023-05-10T23:31:53.288Z,1.38
2023-05-10T23:34:55.733Z,1.55
2023-05-10T23:37:58.737Z,1.50
2023-05-10T23:41:01.412Z,1.95
2023-05-10T23:44:04.376Z,1.73
2023-05-10T23:47:07.313Z,1.73
2023-05-10T23:50:10.725Z,1.38
2023-05-10T23:53:13.145Z,1.88
2023-05-10T23:56:15.945Z,1.70
2023-05-10T23:59:18.667Z,2.25
